Cape Brindisi — V7IV5 — position and weather

sailwx.info

Track history (hours):
 
Tides and Currents Weather Stations Pressure Air Temp Water Temp Dewpoint Dewpoint Depression Visibility Wind Speed Wind Dir Waves Ship Positions

Cape Brindisi

Last reported at 2018-Feb-17 22:21 UTC. Time now 2018-Feb-24 02:45 UTC.
Position N 36°20' E 014°53'.

Length 274 m; draft 9 m.

Type: Ship. MMSI: 538090189.

Date/timePositionNaut miles runAvg speedWind from/ knotsBaromVisibWave heightAir tempDewpointWater temp
2018-Feb-17 22:21N 36°20' E 014°53'412.1
2018-Feb-17 22:00N 36°21' E 014°48'611.8
2018-Feb-17 21:30N 36°23' E 014°41'611.8
2018-Feb-17 21:00N 36°25' E 014°34'611.8
2018-Feb-17 20:28N 36°27' E 014°27'511.6
2018-Feb-17 20:00N 36°28' E 014°20'611.6
2018-Feb-17 19:30N 36°30' E 014°14'611.4
2018-Feb-17 19:00N 36°32' E 014°07'611.6
2018-Feb-17 18:30N 36°34' E 013°60'611.7
2018-Feb-17 17:57N 36°36' E 013°52'44811.4
2018-Feb-16 02:49N 37°16' E 004°35'310.5
2018-Feb-16 02:30N 37°16' E 004°31'510.5
2018-Feb-16 02:00N 37°15' E 004°24'1710.8
2018-Feb-16 00:28N 37°12' E 004°03'4911.2
2018-Feb-15 20:04N 37°03' E 003°03'212.0
2018-Feb-15 19:54N 37°03' E 003°00'511.9
2018-Feb-15 19:30N 37°01' E 002°55'611.3
2018-Feb-15 19:00N 37°01' E 002°48'38911.9
2018-Feb-14 10:13N 36°00' W 005°11'314.4
2018-Feb-14 10:00N 36°01' W 005°15'714.8
2018-Feb-14 09:30N 36°06' W 005°22'0 0.8
2018-Feb-14 09:00N 36°06' W 005°21'0 0.1
2018-Feb-14 08:30N 36°06' W 005°21'0 0.1
2018-Feb-14 08:00N 36°06' W 005°21'0 0.1
2018-Feb-14 07:27N 36°06' W 005°21'0 0.2
2018-Feb-14 07:00N 36°06' W 005°21'0 0.1
2018-Feb-14 06:30N 36°06' W 005°22'0 0.0
2018-Feb-14 05:45N 36°06' W 005°22'0 0.0
2018-Feb-14 05:27N 36°06' W 005°22'0 0.1
2018-Feb-14 05:00N 36°06' W 005°21'0 0.0
2018-Feb-14 04:30N 36°06' W 005°22'0 0.0
2018-Feb-14 04:00N 36°06' W 005°22'0 0.1
2018-Feb-14 02:57N 36°06' W 005°21'0 0.0
2018-Feb-14 02:15N 36°06' W 005°21'0 0.1
2018-Feb-14 01:57N 36°06' W 005°21'0 0.1
2018-Feb-14 01:30N 36°06' W 005°22'0 0.1
2018-Feb-14 00:48N 36°06' W 005°21'0 0.1
2018-Feb-14 00:30N 36°06' W 005°21'0 0.1
2018-Feb-14 00:00N 36°06' W 005°21'0 0.2
2018-Feb-13 23:27N 36°06' W 005°22'0 0.2
2018-Feb-13 23:00N 36°06' W 005°22'0 0.1
2018-Feb-13 22:30N 36°06' W 005°21'0 0.0
2018-Feb-13 21:57N 36°06' W 005°21'0 0.0
2018-Feb-13 21:27N 36°06' W 005°21'0 0.0
2018-Feb-13 20:57N 36°06' W 005°21'0 0.1
2018-Feb-13 20:27N 36°06' W 005°21'0 0.0
2018-Feb-13 20:00N 36°06' W 005°21'0 0.1
2018-Feb-13 19:27N 36°06' W 005°21'0 0.2
2018-Feb-13 19:00N 36°06' W 005°21'0 0.0
2018-Feb-13 18:15N 36°06' W 005°21'0 0.1
2018-Feb-13 18:00N 36°06' W 005°21'0 0.0
2018-Feb-13 17:30N 36°06' W 005°21'0 0.0
2018-Feb-13 16:54N 36°06' W 005°21'0 0.0
2018-Feb-13 16:30N 36°06' W 005°21'0 0.1
2018-Feb-13 16:00N 36°06' W 005°21'0 0.0
2018-Feb-13 15:30N 36°06' W 005°21'0 0.1
2018-Feb-13 15:00N 36°06' W 005°21'0 0.0
2018-Feb-13 14:30N 36°06' W 005°21'0 0.0
2018-Feb-13 13:54N 36°06' W 005°21'0 0.0
2018-Feb-13 13:30N 36°06' W 005°21'1 1.3
2018-Feb-13 13:00N 36°06' W 005°21'3 5.4
2018-Feb-13 12:30N 36°05' W 005°18'6 0.3
2018-Feb-12 15:51N 36°00' W 005°13'514.9
2018-Feb-12 15:30N 35°59' W 005°19'714.2
2018-Feb-12 15:00N 35°57' W 005°27'283 5.7
2018-Feb-10 13:20N 38°42' W 010°17'3 7.0
2018-Feb-10 12:58N 38°44' W 010°17'4 7.1
2018-Feb-10 12:28N 38°48' W 010°17'7 7.2
2018-Feb-10 11:29N 38°55' W 010°17'3 7.2
2018-Feb-10 11:00N 38°58' W 010°17'4 7.1
2018-Feb-10 10:30N 39°02' W 010°17'4 7.2
2018-Feb-10 09:56N 39°06' W 010°18'5 7.7
2018-Feb-10 09:19N 39°11' W 010°18'3 8.7
2018-Feb-10 09:00N 39°14' W 010°18'393 9.0
2018-Feb-08 13:30N 43°40' W 003°54'2010.1
2018-Feb-08 11:30N 43°36' W 003°26'5 9.8
2018-Feb-08 11:00N 43°33' W 003°21'1010.1
2018-Feb-08 10:00N 43°27' W 003°09'6 0.7
2018-Feb-08 01:30N 43°22' W 003°06'0 0.0
2018-Feb-08 00:57N 43°22' W 003°06'0 0.0
2018-Feb-08 00:30N 43°22' W 003°06'0 0.0
2018-Feb-08 00:00N 43°22' W 003°06'0 0.0
2018-Feb-07 23:27N 43°22' W 003°06'0 0.0
2018-Feb-07 23:00N 43°22' W 003°06'0 0.0
2018-Feb-07 22:27N 43°22' W 003°06'  
Track history (hours):
 
Tides and Currents Weather Stations Pressure Air Temp Water Temp Dewpoint Dewpoint Depression Visibility Wind Speed Wind Dir Waves Ship Positions

Cape Brindisi

Last reported at 2018-Feb-17 22:21 UTC. Time now 2018-Feb-24 02:45 UTC.
Position N 36°20' E 014°53'.

Length 274 m; draft 9 m.

Type: Ship. MMSI: 538090189.

Date/timePositionNaut miles runAvg speedWind from/ knotsBaromVisibWave heightAir tempDewpointWater temp
2018-Feb-17 22:21N 36°20' E 014°53'412.1
2018-Feb-17 22:00N 36°21' E 014°48'611.8
2018-Feb-17 21:30N 36°23' E 014°41'611.8
2018-Feb-17 21:00N 36°25' E 014°34'611.8
2018-Feb-17 20:28N 36°27' E 014°27'511.6
2018-Feb-17 20:00N 36°28' E 014°20'611.6
2018-Feb-17 19:30N 36°30' E 014°14'611.4
2018-Feb-17 19:00N 36°32' E 014°07'611.6
2018-Feb-17 18:30N 36°34' E 013°60'611.7
2018-Feb-17 17:57N 36°36' E 013°52'44811.4
2018-Feb-16 02:49N 37°16' E 004°35'310.5
2018-Feb-16 02:30N 37°16' E 004°31'510.5
2018-Feb-16 02:00N 37°15' E 004°24'1710.8
2018-Feb-16 00:28N 37°12' E 004°03'4911.2
2018-Feb-15 20:04N 37°03' E 003°03'212.0
2018-Feb-15 19:54N 37°03' E 003°00'511.9
2018-Feb-15 19:30N 37°01' E 002°55'611.3
2018-Feb-15 19:00N 37°01' E 002°48'38911.9
2018-Feb-14 10:13N 36°00' W 005°11'314.4
2018-Feb-14 10:00N 36°01' W 005°15'714.8
2018-Feb-14 09:30N 36°06' W 005°22'0 0.8
2018-Feb-14 09:00N 36°06' W 005°21'0 0.1
2018-Feb-14 08:30N 36°06' W 005°21'0 0.1
2018-Feb-14 08:00N 36°06' W 005°21'0 0.1
2018-Feb-14 07:27N 36°06' W 005°21'0 0.2
2018-Feb-14 07:00N 36°06' W 005°21'0 0.1
2018-Feb-14 06:30N 36°06' W 005°22'0 0.0
2018-Feb-14 05:45N 36°06' W 005°22'0 0.0
2018-Feb-14 05:27N 36°06' W 005°22'0 0.1
2018-Feb-14 05:00N 36°06' W 005°21'0 0.0
2018-Feb-14 04:30N 36°06' W 005°22'0 0.0
2018-Feb-14 04:00N 36°06' W 005°22'0 0.1
2018-Feb-14 02:57N 36°06' W 005°21'0 0.0
2018-Feb-14 02:15N 36°06' W 005°21'0 0.1
2018-Feb-14 01:57N 36°06' W 005°21'0 0.1
2018-Feb-14 01:30N 36°06' W 005°22'0 0.1
2018-Feb-14 00:48N 36°06' W 005°21'0 0.1
2018-Feb-14 00:30N 36°06' W 005°21'0 0.1
2018-Feb-14 00:00N 36°06' W 005°21'0 0.2
2018-Feb-13 23:27N 36°06' W 005°22'0 0.2
2018-Feb-13 23:00N 36°06' W 005°22'0 0.1
2018-Feb-13 22:30N 36°06' W 005°21'0 0.0
2018-Feb-13 21:57N 36°06' W 005°21'0 0.0
2018-Feb-13 21:27N 36°06' W 005°21'0 0.0
2018-Feb-13 20:57N 36°06' W 005°21'0 0.1
2018-Feb-13 20:27N 36°06' W 005°21'0 0.0
2018-Feb-13 20:00N 36°06' W 005°21'0 0.1
2018-Feb-13 19:27N 36°06' W 005°21'0 0.2
2018-Feb-13 19:00N 36°06' W 005°21'0 0.0
2018-Feb-13 18:15N 36°06' W 005°21'0 0.1
2018-Feb-13 18:00N 36°06' W 005°21'0 0.0
2018-Feb-13 17:30N 36°06' W 005°21'0 0.0
2018-Feb-13 16:54N 36°06' W 005°21'0 0.0
2018-Feb-13 16:30N 36°06' W 005°21'0 0.1
2018-Feb-13 16:00N 36°06' W 005°21'0 0.0
2018-Feb-13 15:30N 36°06' W 005°21'0 0.1
2018-Feb-13 15:00N 36°06' W 005°21'0 0.0
2018-Feb-13 14:30N 36°06' W 005°21'0 0.0
2018-Feb-13 13:54N 36°06' W 005°21'0 0.0
2018-Feb-13 13:30N 36°06' W 005°21'1 1.3
2018-Feb-13 13:00N 36°06' W 005°21'3 5.4
2018-Feb-13 12:30N 36°05' W 005°18'6 0.3
2018-Feb-12 15:51N 36°00' W 005°13'514.9
2018-Feb-12 15:30N 35°59' W 005°19'714.2
2018-Feb-12 15:00N 35°57' W 005°27'283 5.7
2018-Feb-10 13:20N 38°42' W 010°17'3 7.0
2018-Feb-10 12:58N 38°44' W 010°17'4 7.1
2018-Feb-10 12:28N 38°48' W 010°17'7 7.2
2018-Feb-10 11:29N 38°55' W 010°17'3 7.2
2018-Feb-10 11:00N 38°58' W 010°17'4 7.1
2018-Feb-10 10:30N 39°02' W 010°17'4 7.2
2018-Feb-10 09:56N 39°06' W 010°18'5 7.7
2018-Feb-10 09:19N 39°11' W 010°18'3 8.7
2018-Feb-10 09:00N 39°14' W 010°18'393 9.0
2018-Feb-08 13:30N 43°40' W 003°54'2010.1
2018-Feb-08 11:30N 43°36' W 003°26'5 9.8
2018-Feb-08 11:00N 43°33' W 003°21'1010.1
2018-Feb-08 10:00N 43°27' W 003°09'6 0.7
2018-Feb-08 01:30N 43°22' W 003°06'0 0.0
2018-Feb-08 00:57N 43°22' W 003°06'0 0.0
2018-Feb-08 00:30N 43°22' W 003°06'0 0.0
2018-Feb-08 00:00N 43°22' W 003°06'0 0.0
2018-Feb-07 23:27N 43°22' W 003°06'0 0.0
2018-Feb-07 23:00N 43°22' W 003°06'0 0.0
2018-Feb-07 22:27N 43°22' W 003°06'  

Dump ship's entire track history